Orchard Park, NY

9:49 PM EST on February 27, 2015 (GMT -0500)
Buffalo Niagara International | Change Station
CLOSE
Current Station
Airport
Location: Buffalo,
Elevation: 702 ft
Nearby Weather Stations
Active Advisory: Winter Storm Watch

Elev 702 ft 42.94 °N, 78.74 °W | Updated 55 minutes ago

Clear
Clear
6 °F
Feels Like -9 °F
N
10
Wind Variable Wind from SW

Today
High -- | Low -- °F
--% Chance of Precip.
Yesterday
High -- | Low -- °F
Precip. -- in
6:54 AM 6:01 PM
Waxing Gibbous, 73% visible
Pressure 30.66 in
Visibility 10.0 miles
Clouds Clear
Windchill -9 °F
Dew Point 0 °F
Humidity 76%
Rainfall 0.00 in
Snow Depth Not available.
UV 0 out of 12
Pollen .40 out of 12
Air Quality Not available.
Flu Activity Not available.
METAR KBUF 280154Z 23009KT 10SM CLR M14/M18 A3060 RMK AO2 SLP383 T11441178

More Conditions Fewer Conditions

Pressure 30.66 in
Visibility 10.0 miles
Clouds Clear
Windchill -9 °F
Dew Point 0 °F
Humidity 76%
Rainfall 0.00 in
Snow Depth Not available.
UV 0 out of 12
Pollen .40 out of 12
Air Quality Not available.
Flu Activity Not available.
METAR KBUF 280154Z 23009KT 10SM CLR M14/M18 A3060 RMK AO2 SLP383 T11441178

More Conditions Fewer Conditions

10-Day Weather Forecast

Almanac

Astronomy

Feb. 27, 2015 Rise Set
Actual Time
Civil Twilight
Nautical Twilight
Astronomical Twilight
Moon
Length of Visible Light
Length of Day
Tomorrow will be .
, % of the Moon is Illuminated

Today's Extremes

State Highs State Lows

Community

WunderPhotos

Upload Photos

1,800,943 photos uploaded!

WunderBlogs® & News

Nearby

Air Quality

  Air Quality AQ Index Pollutant
Not available.

Snow Depth

Station Depth Elevation

Earthquake Activity

City Distance Mag. Time & Date
Minimum magnitude displayed is 2.5.

Coastal Water Temperatures

Place Temperature

Nearby Weather Stations

Winter Storm Watch
Statement as of 2:38 PM EST on February 27, 2015

... Winter Storm Watch in effect from late Saturday night through
Monday morning...

The National Weather Service in Buffalo has issued a Winter Storm
Watch... which is in effect from late Saturday night through
Monday morning.

* Locations... Chautauqua... Cattaraugus... Allegany... Wyoming... and
southern Erie counties.

* Timing... from late Saturday night through early Monday morning.

* Hazards... heavy snow.

* Accumulations... potentially 7 inches or more of snow.

* Impacts... hazardous travel from snow covered roads and poor visibility.

* Forecaster confidence... medium.

Precautionary/preparedness actions...

A Winter Storm Watch means that heavy snow and/or ice
accumulations are possible. If you are within the watch area...
remain alert to rapidly changing weather conditions.

Stay tuned to NOAA Weather Radio or your favorite source of
weather information for the latest updates. Additional details
can also be found at www.Weather.Gov/Buffalo.